Time;durP1;ratioP1;P1;durP2;ratioP2;P2;SDS_P1;SDS_P2;PMS_P1;PMS_P2;Temp;Humidity;BMP_temperature;BMP_pressure;BME280_temperature;BME280_humidity;BME280_pressure;Samples;Min_cycle;Max_cycle;Signal;HPM_P1;HPM_P2
2023/08/03 00:00:32;;;;;;;2.80;0.95;;;;;;;17.47;100.00;97331.25;5048039;28;20029;-76
2023/08/03 00:02:58;;;;;;;9.70;1.30;;;;;;;17.67;100.00;97354.13;5044375;28;20103;-74
2023/08/03 00:05:23;;;;;;;6.05;1.00;;;;;;;17.82;100.00;97353.22;5028822;28;20052;-75
2023/08/03 00:07:49;;;;;;;4.78;1.25;;;;;;;17.76;100.00;97346.91;5026113;28;20521;-74
2023/08/03 00:10:16;;;;;;;15.95;1.23;;;;;;;17.80;100.00;97347.22;5028927;28;20029;-76
2023/08/03 00:12:42;;;;;;;3.58;0.90;;;;;;;17.91;100.00;97365.16;5047032;28;20024;-76
2023/08/03 00:15:09;;;;;;;3.55;0.90;;;;;;;17.93;100.00;97360.22;5020521;28;20045;-76
2023/08/03 00:17:34;;;;;;;4.10;1.10;;;;;;;17.94;100.00;97359.13;5031138;28;20031;-76
2023/08/03 00:20:03;;;;;;;5.97;0.98;;;;;;;17.87;100.00;97348.53;5030193;28;20028;-76
2023/08/03 00:22:28;;;;;;;11.13;1.77;;;;;;;17.78;100.00;97341.19;5030824;28;20390;-76
2023/08/03 00:24:53;;;;;;;5.45;0.82;;;;;;;17.86;100.00;97348.78;5040403;28;20028;-76
2023/08/03 00:27:19;;;;;;;4.70;0.93;;;;;;;17.68;100.00;97321.03;5048051;28;20025;-75
2023/08/03 00:29:44;;;;;;;5.15;0.82;;;;;;;17.72;100.00;97354.06;5029538;28;20040;-76
2023/08/03 00:32:09;;;;;;;6.68;1.20;;;;;;;17.69;100.00;97350.00;5037927;28;20377;-76
2023/08/03 00:34:34;;;;;;;4.20;1.15;;;;;;;17.78;100.00;97341.19;5027586;28;20032;-76
2023/08/03 00:37:00;;;;;;;6.82;1.30;;;;;;;17.89;100.00;97335.38;5027395;28;20025;-75
2023/08/03 00:39:27;;;;;;;5.43;1.23;;;;;;;17.98;100.00;97321.88;5044393;28;20009;-74
2023/08/03 00:41:52;;;;;;;5.88;0.90;;;;;;;18.10;100.00;97333.28;5049475;28;20025;-75
2023/08/03 00:44:18;;;;;;;4.30;0.60;;;;;;;18.11;100.00;97329.41;5031894;28;20051;-76
2023/08/03 00:46:44;;;;;;;6.57;0.95;;;;;;;18.10;100.00;97330.53;5042654;28;20028;-76
2023/08/03 00:49:09;;;;;;;9.10;1.27;;;;;;;17.89;100.00;97309.91;5024045;28;20032;-76
2023/08/03 00:51:34;;;;;;;6.07;0.65;;;;;;;18.00;100.00;97332.53;5046606;28;20042;-76
2023/08/03 00:54:00;;;;;;;7.43;0.90;;;;;;;17.88;100.00;97339.19;5039433;28;20465;-76
2023/08/03 00:56:25;;;;;;;6.57;1.40;;;;;;;17.80;100.00;97333.53;5049463;28;20466;-76
2023/08/03 00:58:50;;;;;;;4.75;0.98;;;;;;;17.80;100.00;97311.66;5047078;28;20440;-75
2023/08/03 01:01:15;;;;;;;5.78;1.25;;;;;;;17.99;100.00;97330.91;5047250;28;20474;-76
2023/08/03 01:03:41;;;;;;;8.82;1.55;;;;;;;18.13;100.00;97331.84;5031164;28;20025;-75
2023/08/03 01:06:06;;;;;;;5.90;0.82;;;;;;;17.96;100.00;97315.88;5017762;28;20482;-76
2023/08/03 01:08:32;;;;;;;7.25;0.90;;;;;;;17.98;100.00;97321.88;5028513;28;20025;-76
2023/08/03 01:10:57;;;;;;;7.38;1.00;;;;;;;17.93;100.00;97324.66;5026476;28;20500;-76
2023/08/03 01:13:23;;;;;;;5.72;1.10;;;;;;;17.84;100.00;97321.75;5048082;28;20029;-76
2023/08/03 01:15:49;;;;;;;4.43;1.08;;;;;;;17.59;100.00;97294.56;5045001;28;20064;-76
2023/08/03 01:18:15;;;;;;;9.32;1.02;;;;;;;17.82;100.00;97325.88;5024473;28;20036;-72
2023/08/03 01:20:42;;;;;;;11.30;1.13;;;;;;;17.68;100.00;97314.72;5021782;28;20091;-76
2023/08/03 01:23:08;;;;;;;3.78;0.75;;;;;;;17.78;100.00;97346.66;5020642;28;20024;-76
2023/08/03 01:25:35;;;;;;;5.95;1.10;;;;;;;17.74;100.00;97340.94;5045040;28;20033;-75
2023/08/03 01:28:02;;;;;;;4.53;0.82;;;;;;;17.65;100.00;97315.28;5043675;28;20494;-76
2023/08/03 01:30:28;;;;;;;3.67;0.95;;;;;;;17.74;100.00;97324.53;5020979;28;20033;-73
2023/08/03 01:32:53;;;;;;;7.07;1.05;;;;;;;17.67;100.00;97319.38;5039581;28;20039;-74
2023/08/03 01:35:18;;;;;;;6.63;1.05;;;;;;;17.75;100.00;97346.09;5032099;28;20020;-73
2023/08/03 01:37:44;;;;;;;6.07;0.82;;;;;;;17.61;100.00;97306.84;5043748;28;20025;-73
2023/08/03 01:40:12;;;;;;;5.63;1.10;;;;;;;17.60;100.00;97313.41;5042399;28;20635;-73
2023/08/03 01:42:38;;;;;;;6.23;1.10;;;;;;;17.57;100.00;97302.22;5043405;28;20024;-72
2023/08/03 01:45:06;;;;;;;5.35;1.05;;;;;;;17.77;100.00;97326.69;5016732;28;20278;-71
2023/08/03 01:47:31;;;;;;;6.88;1.00;;;;;;;17.72;100.00;97335.75;5018429;28;20044;-75
2023/08/03 01:49:56;;;;;;;7.07;1.40;;;;;;;17.88;100.00;97338.38;5044683;28;20122;-74
2023/08/03 01:52:21;;;;;;;4.97;1.08;;;;;;;17.72;100.00;97311.13;5021413;28;20068;-74
2023/08/03 01:54:47;;;;;;;4.88;0.77;;;;;;;17.77;100.00;97345.03;5028282;28;20310;-74
2023/08/03 01:57:12;;;;;;;7.28;1.30;;;;;;;17.70;100.00;97345.34;5018875;28;20120;-74
2023/08/03 01:59:37;;;;;;;4.07;0.90;;;;;;;17.61;100.00;97339.66;5026387;28;20021;-75
2023/08/03 02:02:02;;;;;;;4.05;0.80;;;;;;;17.62;100.00;97344.03;5046545;28;20032;-73
2023/08/03 02:04:28;;;;;;;11.30;1.27;;;;;;;17.43;100.00;97335.69;5046344;28;20029;-74
2023/08/03 02:06:56;;;;;;;5.45;0.90;;;;;;;17.54;100.00;97358.31;5044494;28;20468;-74
2023/08/03 02:09:21;;;;;;;7.82;0.93;;;;;;;17.49;100.00;97359.16;5015560;28;20029;-74
2023/08/03 02:11:47;;;;;;;3.78;0.88;;;;;;;17.18;100.00;97320.25;5014731;28;20078;-72
2023/08/03 02:14:12;;;;;;;3.05;0.82;;;;;;;17.20;100.00;97339.91;5029424;28;20025;-73
2023/08/03 02:16:37;;;;;;;5.70;1.13;;;;;;;17.31;100.00;97349.69;5019793;28;20479;-74
2023/08/03 02:19:03;;;;;;;7.38;1.40;;;;;;;17.18;100.00;97353.03;5024110;28;20025;-74
2023/08/03 02:21:28;;;;;;;8.02;0.95;;;;;;;17.13;100.00;97358.53;5041571;28;20436;-73
2023/08/03 02:23:53;;;;;;;4.68;1.08;;;;;;;17.02;100.00;97365.16;5027374;28;20029;-75
2023/08/03 02:26:19;;;;;;;9.40;1.23;;;;;;;17.02;100.00;97376.91;5029117;28;20029;-74
2023/08/03 02:28:44;;;;;;;3.92;1.02;;;;;;;16.97;100.00;97379.66;5033930;28;20096;-74
2023/08/03 02:31:09;;;;;;;9.70;1.25;;;;;;;16.81;100.00;97351.56;5042097;28;20758;-74
2023/08/03 02:33:34;;;;;;;5.38;1.10;;;;;;;16.89;100.00;97382.97;5038945;28;20025;-74
2023/08/03 02:36:00;;;;;;;4.68;0.77;;;;;;;16.92;100.00;97378.84;5018391;28;20024;-74
2023/08/03 02:38:25;;;;;;;7.40;1.00;;;;;;;17.04;100.00;97396.56;5046380;28;20490;-74
2023/08/03 02:40:51;;;;;;;6.85;1.20;;;;;;;17.04;100.00;97391.09;5047938;28;20455;-74
2023/08/03 02:43:16;;;;;;;6.63;0.93;;;;;;;17.11;100.00;97384.50;5029606;28;20017;-74
2023/08/03 02:45:41;;;;;;;4.38;0.70;;;;;;;17.14;100.00;97375.78;5028665;28;20086;-74
2023/08/03 02:48:07;;;;;;;7.60;1.05;;;;;;;17.22;100.00;97386.13;5044602;28;20029;-74
2023/08/03 02:50:32;;;;;;;4.20;0.90;;;;;;;17.16;100.00;97393.53;5032041;28;20033;-75
2023/08/03 02:52:57;;;;;;;4.55;0.77;;;;;;;17.25;100.00;97405.50;5025676;28;20090;-73
2023/08/03 02:55:22;;;;;;;4.80;0.75;;;;;;;17.09;100.00;97380.16;5048633;28;20497;-74
2023/08/03 02:57:48;;;;;;;6.57;1.02;;;;;;;17.23;100.00;97417.81;5021598;28;20112;-70
2023/08/03 03:00:13;;;;;;;6.70;0.90;;;;;;;17.18;100.00;97404.97;5045995;28;20025;-74
2023/08/03 03:02:38;;;;;;;2.55;0.45;;;;;;;17.24;100.00;97417.53;5050217;28;20028;-74
2023/08/03 03:05:04;;;;;;;6.82;0.82;;;;;;;17.22;100.00;97400.59;5043064;28;20063;-74
2023/08/03 03:07:33;;;;;;;3.22;0.60;;;;;;;17.23;100.00;97396.75;5030702;28;20355;-74
2023/08/03 03:09:58;;;;;;;4.00;0.47;;;;;;;17.34;100.00;97404.91;5049590;28;20051;-74
2023/08/03 03:12:24;;;;;;;4.57;0.65;;;;;;;17.45;100.00;97415.53;5047794;28;20487;-77
2023/08/03 03:14:49;;;;;;;5.57;0.77;;;;;;;17.42;100.00;97409.78;5035074;28;20033;-77
2023/08/03 03:17:14;;;;;;;1.33;0.40;;;;;;;17.43;100.00;97425.09;5026297;28;20025;-77
2023/08/03 03:19:40;;;;;;;5.28;0.88;;;;;;;17.40;100.00;97425.66;5027019;28;20025;-77
2023/08/03 03:22:05;;;;;;;2.95;0.45;;;;;;;17.17;100.00;97400.63;5033194;28;20032;-77
2023/08/03 03:24:31;;;;;;;5.82;0.60;;;;;;;17.13;100.00;97401.44;5052819;28;20051;-79
2023/08/03 03:26:56;;;;;;;2.88;0.50;;;;;;;17.14;100.00;97425.78;5032369;28;20498;-76
2023/08/03 03:29:21;;;;;;;4.13;0.55;;;;;;;17.02;100.00;97426.09;5021353;28;20042;-77
2023/08/03 03:31:46;;;;;;;2.78;0.35;;;;;;;16.98;100.00;97438.69;5018035;28;20029;-76
2023/08/03 03:34:12;;;;;;;3.35;0.82;;;;;;;16.98;100.00;97449.59;5027632;28;20037;-77
2023/08/03 03:36:37;;;;;;;1.17;0.30;;;;;;;16.81;100.00;97428.06;5033146;28;20068;-73
2023/08/03 03:39:02;;;;;;;3.33;0.77;;;;;;;16.70;100.00;97436.53;5051079;28;20047;-73
2023/08/03 03:41:28;;;;;;;3.75;0.50;;;;;;;16.62;100.00;97440.66;5024610;28;20036;-78
2023/08/03 03:43:53;;;;;;;4.53;0.70;;;;;;;16.62;100.00;97451.56;5046962;28;20024;-79
2023/08/03 03:46:18;;;;;;;5.60;0.63;;;;;;;16.54;100.00;97455.69;5029519;28;20150;-77
2023/08/03 03:48:43;;;;;;;3.25;0.52;;;;;;;16.44;100.00;97453.75;5029671;28;20047;-78
2023/08/03 03:51:09;;;;;;;1.73;0.43;;;;;;;16.30;100.00;97452.69;5033752;28;20109;-78
2023/08/03 03:53:34;;;;;;;2.03;0.50;;;;;;;16.25;100.00;97458.16;5028449;28;20114;-78
2023/08/03 03:55:59;;;;;;;7.32;0.93;;;;;;;16.15;100.00;97449.97;5054342;28;20036;-76
2023/08/03 03:58:25;;;;;;;8.02;0.60;;;;;;;16.09;100.00;97453.78;5050879;28;20052;-76
2023/08/03 04:00:50;;;;;;;5.22;0.90;;;;;;;15.98;100.00;97464.69;5057470;28;20021;-77
2023/08/03 04:03:16;;;;;;;2.88;0.68;;;;;;;15.93;100.00;97461.16;5038589;28;20075;-75
2023/08/03 04:05:42;;;;;;;5.68;0.60;;;;;;;15.93;100.00;97481.06;5038011;28;20021;-83
2023/08/03 04:08:09;;;;;;;1.13;0.35;;;;;;;15.89;100.00;97488.13;5037905;28;20079;-78
2023/08/03 04:10:35;;;;;;;6.03;0.75;;;;;;;15.80;100.00;97478.84;5040294;28;20036;-81
2023/08/03 04:13:00;;;;;;;5.57;1.33;;;;;;;15.83;100.00;97488.41;5032886;28;20017;-73
2023/08/03 04:15:26;;;;;;;2.28;0.50;;;;;;;15.94;100.00;97490.84;5032852;28;20482;-75
2023/08/03 04:17:51;;;;;;;5.93;0.98;;;;;;;15.93;100.00;97486.50;5031767;28;20045;-78
2023/08/03 04:20:16;;;;;;;6.15;0.82;;;;;;;16.01;100.00;97490.59;5032107;28;20469;-75
2023/08/03 04:22:42;;;;;;;4.30;0.75;;;;;;;16.22;100.00;97499.63;5025804;28;20021;-77
2023/08/03 04:25:08;;;;;;;3.58;0.82;;;;;;;16.32;100.00;97477.81;5034623;28;20037;-76
2023/08/03 04:27:33;;;;;;;5.05;0.82;;;;;;;16.40;100.00;97492.78;5021213;28;20643;-74
2023/08/03 04:29:59;;;;;;;4.88;0.80;;;;;;;16.39;100.00;97505.63;5044371;28;20832;-73
2023/08/03 04:32:24;;;;;;;2.92;0.75;;;;;;;16.39;100.00;97494.72;5043873;28;20550;-74
2023/08/03 04:34:50;;;;;;;6.18;0.77;;;;;;;16.44;100.00;97489.25;5047121;28;20505;-76
2023/08/03 04:37:15;;;;;;;5.93;0.90;;;;;;;16.50;100.00;97497.44;5033026;28;20071;-74
2023/08/03 04:39:40;;;;;;;7.35;0.77;;;;;;;16.58;100.00;97507.81;5048208;28;20111;-75
2023/08/03 04:42:06;;;;;;;5.32;0.80;;;;;;;16.55;100.00;97494.72;5034173;28;20031;-74
2023/08/03 04:44:31;;;;;;;4.50;0.73;;;;;;;16.64;100.00;97514.94;5028919;28;20047;-75
2023/08/03 04:46:57;;;;;;;5.97;0.88;;;;;;;16.62;100.00;97517.09;5040422;28;20127;-83
2023/08/03 04:49:22;;;;;;;4.32;0.73;;;;;;;16.63;100.00;97519.53;5039812;28;20108;-81
2023/08/03 04:51:49;;;;;;;5.60;0.70;;;;;;;16.79;100.00;97538.69;5040908;28;20087;-83
2023/08/03 04:54:15;;;;;;;5.07;0.75;;;;;;;16.90;100.00;97531.28;5060024;28;20016;-86
2023/08/03 04:56:40;;;;;;;4.95;0.77;;;;;;;16.80;100.00;97522.03;5044271;28;20055;-84
2023/08/03 04:59:05;;;;;;;3.05;0.77;;;;;;;16.76;100.00;97537.28;5042279;28;20023;-81
2023/08/03 05:01:32;;;;;;;6.97;0.80;;;;;;;16.62;100.00;97528.03;5044931;28;20032;-81
2023/08/03 05:03:59;;;;;;;3.75;0.88;;;;;;;16.63;100.00;97541.38;5041483;28;20151;-84
2023/08/03 05:06:25;;;;;;;5.57;1.02;;;;;;;16.68;100.00;97540.56;5053496;28;20029;-80
2023/08/03 05:08:50;;;;;;;8.10;0.93;;;;;;;16.68;100.00;97537.84;5040528;28;20025;-80
2023/08/03 05:11:16;;;;;;;6.82;1.27;;;;;;;16.77;100.00;97547.19;5036278;28;20123;-78
2023/08/03 05:13:41;;;;;;;5.85;1.13;;;;;;;16.76;100.00;97536.47;5038712;28;20113;-77
2023/08/03 05:16:07;;;;;;;10.60;1.02;;;;;;;16.94;100.00;97538.66;5040941;28;20514;-80
2023/08/03 05:18:32;;;;;;;5.75;1.15;;;;;;;17.22;100.00;97552.84;5024858;28;20112;-76
2023/08/03 05:20:57;;;;;;;2.17;0.32;;;;;;;17.32;100.00;97541.88;5048759;28;20418;-73
2023/08/03 05:23:23;;;;;;;7.82;0.75;;;;;;;17.77;100.00;97561.13;5039638;28;20422;-75
2023/08/03 05:25:53;;;;;;;4.80;0.70;;;;;;;17.72;100.00;97504.53;5047540;28;20071;-79
2023/08/03 05:28:18;;;;;;;2.67;0.55;;;;;;;17.78;100.00;97532.66;5050208;28;20029;-78
2023/08/03 05:30:44;;;;;;;2.60;0.57;;;;;;;17.79;100.00;97521.50;5030728;28;20522;-75
2023/08/03 05:33:09;;;;;;;2.03;0.50;;;;;;;17.72;100.00;97518.19;5028567;28;20036;-72
2023/08/03 05:35:34;;;;;;;4.80;0.55;;;;;;;17.80;100.00;97539.53;5040865;28;20036;-73
2023/08/03 05:38:00;;;;;;;3.15;0.50;;;;;;;17.91;100.00;97553.97;5026362;28;20021;-72
2023/08/03 05:40:25;;;;;;;4.60;0.70;;;;;;;17.88;100.00;97547.16;5029799;28;20108;-73
2023/08/03 05:42:50;;;;;;;2.20;0.40;;;;;;;17.95;100.00;97546.84;5021087;28;20025;-73
2023/08/03 05:45:34;;;;;;;6.20;0.60;;;;;;;17.82;100.00;97551.00;5041040;28;20324;-74
2023/08/03 05:48:00;;;;;;;1.58;0.32;;;;;;;17.86;100.00;97545.78;5030190;28;20391;-73
2023/08/03 05:50:26;;;;;;;4.00;0.50;;;;;;;17.78;100.00;97557.28;5047860;28;20025;-74
2023/08/03 05:52:51;;;;;;;1.33;0.57;;;;;;;17.79;100.00;97548.84;5046909;28;20026;-73
2023/08/03 05:55:17;;;;;;;4.50;0.60;;;;;;;17.91;100.00;97554.78;5040423;28;20032;-73
2023/08/03 05:57:42;;;;;;;3.40;0.60;;;;;;;17.90;100.00;97555.91;5040420;28;20016;-79
2023/08/03 06:00:20;;;;;;;4.35;0.50;;;;;;;17.98;100.00;97565.44;5025720;28;20099;-74
2023/08/03 06:02:46;;;;;;;2.63;0.50;;;;;;;17.80;100.00;97546.94;5019813;28;20013;-73
2023/08/03 06:05:45;;;;;;;4.65;0.40;;;;;;;17.79;100.00;97570.72;5048956;28;20023;-77
2023/08/03 06:08:23;;;;;;;2.20;0.40;;;;;;;17.81;100.00;97573.16;5038227;28;20025;-74
2023/08/03 06:10:57;;;;;;;1.00;0.20;;;;;;;17.71;100.00;97577.56;5042100;28;20097;-75
2023/08/03 06:13:27;;;;;;;1.65;0.20;;;;;;;17.69;100.00;97587.16;5043840;28;20074;-74
2023/08/03 06:15:52;;;;;;;5.20;0.57;;;;;;;17.65;100.00;97581.41;5034836;28;20035;-74
2023/08/03 06:18:19;;;;;;;1.92;0.32;;;;;;;17.70;100.00;97592.31;5047740;28;20017;-74
2023/08/03 06:20:49;;;;;;;4.53;0.52;;;;;;;17.70;100.00;97594.25;5027776;28;20351;-77
2023/08/03 06:23:26;;;;;;;2.33;0.47;;;;;;;17.74;100.00;97598.88;5047189;28;20021;-74
2023/08/03 06:25:54;;;;;;;2.78;0.40;;;;;;;17.74;100.00;97598.88;5031246;28;20561;-72
2023/08/03 06:28:22;;;;;;;2.55;0.22;;;;;;;17.71;100.00;97579.47;5040276;28;20123;-76
2023/08/03 06:30:49;;;;;;;3.28;0.43;;;;;;;17.78;100.00;97581.91;5041002;28;20485;-79
2023/08/03 06:33:17;;;;;;;2.42;0.40;;;;;;;18.02;100.00;97614.94;5032358;28;20542;-77
2023/08/03 06:35:47;;;;;;;3.55;0.28;;;;;;;18.03;100.00;97617.41;5030456;28;20112;-78
2023/08/03 06:38:14;;;;;;;2.22;0.28;;;;;;;17.95;100.00;97623.47;5036440;28;20157;-79
2023/08/03 06:40:41;;;;;;;2.17;0.32;;;;;;;17.99;100.00;97615.50;5022273;28;20032;-78
2023/08/03 06:43:08;;;;;;;1.65;0.30;;;;;;;20.70;100.00;97623.94;5033342;28;20075;-77
2023/08/03 06:45:34;;;;;;;1.83;0.30;;;;;;;23.92;100.00;97625.34;5055386;28;20029;-79
2023/08/03 06:48:00;;;;;;;0.95;0.20;;;;;;;26.69;89.89;97627.19;5033299;28;20036;-79
2023/08/03 06:50:28;;;;;;;0.70;0.20;;;;;;;24.21;96.10;97630.31;5035458;28;20486;-75
2023/08/03 06:52:53;;;;;;;0.73;0.30;;;;;;;24.86;92.63;97611.19;5030707;28;20064;-76
2023/08/03 06:55:19;;;;;;;0.43;0.15;;;;;;;25.93;87.66;97626.16;5029688;28;20880;-77
2023/08/03 06:57:44;;;;;;;0.80;0.20;;;;;;;25.40;85.55;97631.03;5042350;28;20032;-75
2023/08/03 07:00:11;;;;;;;1.13;0.30;;;;;;;23.83;95.71;97624.50;5028373;28;20120;-74
2023/08/03 07:02:36;;;;;;;0.57;0.17;;;;;;;24.74;100.00;97630.41;5041779;28;20498;-75
2023/08/03 07:05:01;;;;;;;2.30;0.20;;;;;;;27.48;78.09;97617.88;5029539;28;20025;-75
2023/08/03 07:07:27;;;;;;;1.55;0.20;;;;;;;28.91;70.01;97609.72;5048505;28;20429;-75
2023/08/03 07:09:53;;;;;;;1.27;0.22;;;;;;;30.34;62.03;97619.94;5042030;28;20067;-75
2023/08/03 07:12:19;;;;;;;0.82;0.10;;;;;;;30.82;59.33;97619.84;5049202;28;20040;-75
2023/08/03 07:14:44;;;;;;;0.50;0.20;;;;;;;30.73;56.75;97622.81;5027203;28;20521;-71
2023/08/03 07:17:10;;;;;;;2.13;0.40;;;;;;;29.84;61.32;97613.13;5021748;28;20029;-74
2023/08/03 07:19:36;;;;;;;1.05;0.20;;;;;;;28.26;64.02;97616.09;5044423;28;20052;-74
2023/08/03 07:22:01;;;;;;;0.63;0.30;;;;;;;29.52;58.64;97622.59;5046088;28;20068;-71
2023/08/03 07:24:29;;;;;;;1.48;0.40;;;;;;;28.21;58.47;97607.16;5032424;28;20314;-73
2023/08/03 07:26:54;;;;;;;1.23;0.30;;;;;;;30.44;57.46;97601.00;5029707;28;20060;-72
2023/08/03 07:29:20;;;;;;;2.15;0.20;;;;;;;31.22;53.50;97602.69;5026741;28;20458;-80
2023/08/03 07:31:46;;;;;;;1.48;0.38;;;;;;;29.28;55.65;97619.56;5027302;28;20024;-74
2023/08/03 07:34:11;;;;;;;1.45;0.32;;;;;;;30.06;55.41;97602.50;5026755;28;20025;-76
2023/08/03 07:36:36;;;;;;;1.83;0.30;;;;;;;30.36;54.26;97600.84;5025858;28;20224;-76
2023/08/03 07:39:01;;;;;;;2.70;0.52;;;;;;;27.64;57.24;97612.44;5029342;28;20074;-77
2023/08/03 07:41:27;;;;;;;2.00;0.30;;;;;;;25.56;63.73;97623.81;5052384;28;20033;-77
2023/08/03 07:43:52;;;;;;;1.75;0.32;;;;;;;24.69;68.92;97615.59;5030429;28;20059;-76
2023/08/03 07:46:17;;;;;;;3.65;0.52;;;;;;;23.18;73.92;97614.84;5037663;28;20044;-75
2023/08/03 07:48:43;;;;;;;2.25;0.40;;;;;;;22.14;91.85;97614.75;5036368;28;20024;-77
2023/08/03 07:51:16;;;;;;;2.92;0.30;;;;;;;21.24;100.00;97615.03;5033980;28;20025;-76
2023/08/03 07:53:41;;;;;;;3.10;0.40;;;;;;;20.53;100.00;97613.41;5038660;28;20020;-75
2023/08/03 07:56:17;;;;;;;1.52;0.40;;;;;;;20.35;100.00;97637.03;5045351;28;20070;-77
2023/08/03 07:58:43;;;;;;;0.90;0.35;;;;;;;20.32;100.00;97632.94;5034389;28;20017;-73
2023/08/03 08:01:08;;;;;;;6.82;0.60;;;;;;;20.18;100.00;97632.03;5043909;28;20029;-73
2023/08/03 08:03:35;;;;;;;2.03;0.38;;;;;;;20.24;100.00;97639.09;5048198;28;20032;-76
2023/08/03 08:06:15;;;;;;;2.97;0.60;;;;;;;20.10;100.00;97638.19;5033067;28;20037;-76
2023/08/03 08:08:42;;;;;;;1.75;0.47;;;;;;;20.23;100.00;97651.19;5028245;28;20032;-76
2023/08/03 08:11:08;;;;;;;1.83;0.47;;;;;;;20.45;100.00;97644.31;5026809;28;20501;-77
2023/08/03 08:13:33;;;;;;;2.80;0.35;;;;;;;20.49;100.00;97662.66;5035488;28;20036;-75
2023/08/03 08:16:08;;;;;;;1.65;0.22;;;;;;;20.73;100.00;97659.06;5032913;28;20021;-77
2023/08/03 08:18:34;;;;;;;1.33;0.40;;;;;;;20.52;100.00;97636.53;5045593;28;20029;-76
2023/08/03 08:21:06;;;;;;;2.03;0.43;;;;;;;20.89;100.00;97652.22;5034675;28;20033;-77
2023/08/03 08:23:31;;;;;;;2.20;0.40;;;;;;;20.56;100.00;97674.13;5040103;28;20022;-76
2023/08/03 08:25:57;;;;;;;3.47;0.40;;;;;;;21.15;100.00;97660.88;5047778;28;20029;-75
2023/08/03 08:28:23;;;;;;;1.48;0.30;;;;;;;21.05;100.00;97672.03;5037409;28;20025;-76
2023/08/03 08:30:49;;;;;;;2.90;0.63;;;;;;;21.44;100.00;97643.38;5044357;28;20060;-77
2023/08/03 08:33:16;;;;;;;1.95;0.30;;;;;;;20.90;100.00;97686.03;5045299;28;20104;-79
2023/08/03 08:35:42;;;;;;;3.10;0.60;;;;;;;21.40;100.00;97678.09;5031658;28;20079;-77
2023/08/03 08:38:12;;;;;;;1.88;0.50;;;;;;;21.27;100.00;97662.34;5023990;28;20032;-76
2023/08/03 08:40:41;;;;;;;1.17;0.40;;;;;;;20.52;100.00;97651.09;5022455;28;20024;-74
2023/08/03 08:43:07;;;;;;;1.92;0.20;;;;;;;20.90;100.00;97686.03;5025980;28;20106;-74
2023/08/03 08:45:34;;;;;;;1.27;0.30;;;;;;;21.16;100.00;97701.00;5034776;28;20041;-75
2023/08/03 08:47:59;;;;;;;3.80;0.52;;;;;;;20.98;100.00;97708.16;5027380;28;20029;-73
2023/08/03 08:50:25;;;;;;;2.17;0.40;;;;;;;21.26;100.00;97718.47;5029821;28;20096;-75
2023/08/03 08:52:51;;;;;;;4.22;0.40;;;;;;;21.62;100.00;97697.53;5025503;28;20022;-74
2023/08/03 08:55:23;;;;;;;1.20;0.30;;;;;;;21.92;100.00;97697.25;5031584;28;20518;-74
2023/08/03 08:57:49;;;;;;;4.03;0.40;;;;;;;22.28;99.70;97706.50;5022368;28;20036;-73
2023/08/03 09:00:15;;;;;;;4.40;0.47;;;;;;;22.44;100.00;97701.47;5025207;28;20347;-73
2023/08/03 09:02:40;;;;;;;0.85;0.30;;;;;;;21.76;100.00;97705.00;5027351;28;20037;-72
2023/08/03 09:05:08;;;;;;;4.25;0.60;;;;;;;21.82;100.00;97714.78;5045273;28;20398;-73
2023/08/03 09:07:34;;;;;;;4.70;0.45;;;;;;;21.28;100.00;97708.00;5039707;28;20025;-73
2023/08/03 09:10:01;;;;;;;1.23;0.20;;;;;;;21.40;100.00;97705.59;5050540;28;20214;-73
2023/08/03 09:12:26;;;;;;;3.40;0.40;;;;;;;21.12;100.00;97712.94;5051373;28;20028;-73
2023/08/03 09:14:53;;;;;;;1.23;0.32;;;;;;;20.57;100.00;97722.50;5047760;28;20029;-72
2023/08/03 09:17:20;;;;;;;2.35;0.38;;;;;;;20.91;100.00;97734.41;5029753;28;20147;-72
2023/08/03 09:19:46;;;;;;;2.22;0.70;;;;;;;22.79;100.00;97731.34;5020200;28;20502;-73
2023/08/03 09:22:12;;;;;;;1.90;0.30;;;;;;;23.12;92.57;97715.44;5034253;28;20052;-74
2023/08/03 09:24:37;;;;;;;4.45;0.30;;;;;;;23.46;92.53;97725.94;5050863;28;20021;-73
2023/08/03 09:27:04;;;;;;;2.80;0.22;;;;;;;22.59;96.86;97738.13;5022905;28;20075;-73
2023/08/03 09:29:31;;;;;;;1.20;0.22;;;;;;;22.69;100.00;97735.16;5049001;28;20521;-72
2023/08/03 09:32:04;;;;;;;1.17;0.30;;;;;;;21.77;100.00;97747.91;5020386;28;20462;-72
2023/08/03 09:34:37;;;;;;;1.52;0.30;;;;;;;21.69;100.00;97751.34;5046679;28;20706;-73
2023/08/03 09:37:03;;;;;;;0.63;0.20;;;;;;;21.79;100.00;97732.72;5045365;28;20031;-73
2023/08/03 09:39:34;;;;;;;1.10;0.20;;;;;;;21.78;100.00;97750.38;5037634;28;20029;-72
2023/08/03 09:42:02;;;;;;;2.28;0.25;;;;;;;21.97;100.00;97733.78;5042117;28;20162;-71
2023/08/03 09:44:29;;;;;;;1.15;0.20;;;;;;;21.85;100.00;97747.22;5025019;28;20033;-71
2023/08/03 09:46:55;;;;;;;2.42;0.30;;;;;;;21.57;100.00;97727.88;5052163;28;20095;-76
2023/08/03 09:49:20;;;;;;;1.10;0.20;;;;;;;22.56;100.00;97741.47;5028579;28;20393;-74
2023/08/03 09:51:50;;;;;;;1.75;0.28;;;;;;;23.01;100.00;97752.69;5027507;28;20032;-74
2023/08/03 09:54:27;;;;;;;3.75;0.40;;;;;;;24.02;94.50;97754.09;5043402;28;20107;-74
2023/08/03 09:56:58;;;;;;;2.47;0.13;;;;;;;23.39;92.25;97736.59;5049343;28;20166;-74
2023/08/03 09:59:27;;;;;;;0.60;0.17;;;;;;;23.12;95.63;97754.88;5032964;28;20021;-74
2023/08/03 10:01:57;;;;;;;3.42;0.52;;;;;;;23.19;96.30;97732.41;5029337;28;20029;-74
2023/08/03 10:04:24;;;;;;;2.17;0.32;;;;;;;23.18;98.72;97756.41;5052302;28;20028;-73
2023/08/03 10:06:53;;;;;;;4.30;0.22;;;;;;;23.11;100.00;97764.31;5034245;28;21918;-75
2023/08/03 10:09:24;;;;;;;2.35;0.43;;;;;;;22.25;100.00;97759.47;5036670;28;20021;-75
2023/08/03 10:11:53;;;;;;;0.82;0.20;;;;;;;21.69;100.00;97751.34;5052446;28;20545;-72
2023/08/03 10:14:26;;;;;;;1.13;0.30;;;;;;;21.20;100.00;97768.06;5049526;28;20079;-76
2023/08/03 10:16:52;;;;;;;2.03;0.55;;;;;;;21.28;100.00;97780.34;5048354;28;20025;-75
2023/08/03 10:19:19;;;;;;;1.52;0.30;;;;;;;20.85;100.00;97771.31;5054714;28;20037;-77
2023/08/03 10:21:44;;;;;;;2.25;0.30;;;;;;;20.53;100.00;97781.03;5047538;28;20105;-73
2023/08/03 10:24:12;;;;;;;1.35;0.20;;;;;;;20.48;100.00;97781.09;5027540;28;20517;-73
2023/08/03 10:26:38;;;;;;;0.73;0.20;;;;;;;20.46;100.00;97786.91;5042352;28;20441;-73
2023/08/03 10:29:04;;;;;;;1.70;0.20;;;;;;;20.42;100.00;97790.53;5029492;28;20031;-73
2023/08/03 10:31:29;;;;;;;2.17;0.52;;;;;;;20.13;100.00;97772.16;5051527;28;20028;-73
2023/08/03 10:33:55;;;;;;;1.67;0.10;;;;;;;20.52;100.00;97798.66;5022350;28;20517;-73
2023/08/03 10:36:38;;;;;;;1.17;0.20;;;;;;;21.67;100.00;97785.53;5018891;28;20478;-73
2023/08/03 10:39:12;;;;;;;0.68;0.10;;;;;;;22.69;100.00;97795.81;5019432;28;20021;-73
2023/08/03 10:41:40;;;;;;;5.20;0.40;;;;;;;21.94;100.00;97770.19;5024662;28;20021;-73
2023/08/03 10:44:05;;;;;;;2.45;0.28;;;;;;;22.31;100.00;97785.78;5042304;28;20041;-74
2023/08/03 10:46:32;;;;;;;3.47;0.23;;;;;;;22.45;100.00;97758.25;5046631;28;20536;-73
2023/08/03 10:48:57;;;;;;;0.93;0.10;;;;;;;22.50;100.00;97754.56;5025347;28;20295;-74
2023/08/03 10:51:23;;;;;;;2.65;0.32;;;;;;;22.45;100.00;97785.81;5047209;28;20425;-73
2023/08/03 10:53:48;;;;;;;1.33;0.20;;;;;;;22.33;100.00;97771.72;5029462;28;20022;-72
2023/08/03 10:56:14;;;;;;;0.50;0.15;;;;;;;22.70;100.00;97767.91;5031381;28;20036;-73
2023/08/03 10:58:47;;;;;;;3.50;0.25;;;;;;;23.04;100.00;97774.13;5046479;28;20016;-78
2023/08/03 11:01:21;;;;;;;1.85;0.20;;;;;;;22.71;100.00;97777.00;5046570;28;20028;-77
2023/08/03 11:03:47;;;;;;;0.32;0.10;;;;;;;23.37;100.00;97778.34;5035656;28;20021;-73
2023/08/03 11:06:12;;;;;;;2.47;0.20;;;;;;;23.82;100.00;97783.06;5054162;28;20079;-76
2023/08/03 11:08:38;;;;;;;1.55;0.28;;;;;;;23.29;100.00;97783.75;5037784;28;20021;-74
2023/08/03 11:11:04;;;;;;;1.20;0.10;;;;;;;23.58;100.00;97777.84;5025577;28;20032;-72
2023/08/03 11:13:29;;;;;;;0.50;0.10;;;;;;;23.94;92.01;97779.72;5028376;28;20029;-71
2023/08/03 11:15:54;;;;;;;1.40;0.22;;;;;;;24.35;90.83;97775.88;5050680;28;20029;-72
2023/08/03 11:18:20;;;;;;;0.52;0.10;;;;;;;24.75;89.20;97771.16;5050472;28;20029;-70
2023/08/03 11:20:45;;;;;;;0.60;0.10;;;;;;;24.49;92.01;97795.97;5046125;28;20048;-71
2023/08/03 11:23:11;;;;;;;0.05;0.00;;;;;;;24.90;83.43;97794.78;5049265;28;20060;-72